createdAt,value
2017-12-04T00:01:02.623Z,78.59
2017-12-04T00:02:12.053Z,78.22
2017-12-04T00:03:21.735Z,78.03
2017-12-04T00:04:31.421Z,78.41
2017-12-04T00:05:41.556Z,78.03
2017-12-04T00:06:51.500Z,77.75
2017-12-04T00:08:01.433Z,77.56
2017-12-04T00:09:10.870Z,77.84
2017-12-04T00:10:20.818Z,77.94
2017-12-04T00:11:30.526Z,77.75
2017-12-04T00:12:40.488Z,77.75
2017-12-04T00:13:50.425Z,78.13
2017-12-04T00:15:00.118Z,78.13
2017-12-04T00:16:09.575Z,78.22
2017-12-04T00:17:19.003Z,77.75
2017-12-04T00:18:28.952Z,78.03
2017-12-04T00:19:38.898Z,77.94
2017-12-04T00:20:48.829Z,77.94
2017-12-04T00:21:58.510Z,77.84
2017-12-04T00:23:08.202Z,77.94
2017-12-04T00:24:17.886Z,77.94
2017-12-04T00:25:27.579Z,77.94
2017-12-04T00:26:37.273Z,78.03
2017-12-04T00:27:47.226Z,77.75
2017-12-04T00:28:56.911Z,77.94
2017-12-04T00:30:06.854Z,77.84
2017-12-04T00:31:16.024Z,78.03
2017-12-04T00:32:25.454Z,77.84
2017-12-04T00:33:35.394Z,78.13
2017-12-04T00:34:45.083Z,77.94
2017-12-04T00:35:54.764Z,78.22
2017-12-04T00:37:04.701Z,78.22
2017-12-04T00:38:14.674Z,78.69
2017-12-04T00:39:24.100Z,78.59
2017-12-04T00:40:33.785Z,78.88
2017-12-04T00:41:43.729Z,78.98
2017-12-04T00:42:53.160Z,79.07
2017-12-04T00:44:03.111Z,79.36
2017-12-04T00:45:13.059Z,79.64
2017-12-04T00:46:22.731Z,79.64
2017-12-04T00:47:32.687Z,79.64
2017-12-04T00:48:41.851Z,79.55
2017-12-04T00:49:51.794Z,79.36
2017-12-04T00:51:01.479Z,80.02
2017-12-04T00:52:11.189Z,80.11
2017-12-04T00:53:20.876Z,80.3
2017-12-04T00:54:30.048Z,80.58
2017-12-04T00:55:39.736Z,80.77
2017-12-04T00:56:49.175Z,81.06
2017-12-04T00:57:58.861Z,81.06
2017-12-04T00:59:08.806Z,80.87
2017-12-04T01:00:18.755Z,80.96
2017-12-04T01:01:28.445Z,81.15
2017-12-04T01:02:38.392Z,80.77
2017-12-04T01:03:48.349Z,80.77
2017-12-04T01:04:58.054Z,80.87
2017-12-04T01:06:07.743Z,80.3
2017-12-04T01:07:17.427Z,80.4
2017-12-04T01:08:27.370Z,80.49
2017-12-04T01:09:37.055Z,80.77
2017-12-04T01:10:47.024Z,80.21
2017-12-04T01:11:56.974Z,80.4
2017-12-04T01:13:06.917Z,80.3
2017-12-04T01:14:16.598Z,80.02
2017-12-04T01:15:26.299Z,80.11
2017-12-04T01:16:36.242Z,80.11
2017-12-04T01:17:45.935Z,79.83
2017-12-04T01:18:55.644Z,79.45
2017-12-04T01:20:05.590Z,79.83
2017-12-04T01:21:14.774Z,79.36
2017-12-04T01:22:24.466Z,79.26
2017-12-04T01:23:34.407Z,79.17
2017-12-04T01:24:44.353Z,78.69
2017-12-04T01:25:53.788Z,78.59
2017-12-04T01:27:03.472Z,78.69
2017-12-04T01:28:12.897Z,78.88
2017-12-04T01:29:22.585Z,78.88
2017-12-04T01:30:32.543Z,78.98
2017-12-04T01:31:42.496Z,78.69
2017-12-04T01:32:52.437Z,78.79
2017-12-04T01:34:02.390Z,78.5
2017-12-04T01:35:12.337Z,78.69
2017-12-04T01:36:22.091Z,78.79
2017-12-04T01:37:32.034Z,78.79
2017-12-04T01:38:41.727Z,78.69
2017-12-04T01:39:51.404Z,79.07
2017-12-04T01:41:01.356Z,79.07
2017-12-04T01:42:11.287Z,79.17
2017-12-04T01:43:21.230Z,78.88
2017-12-04T01:44:31.170Z,78.98
2017-12-04T01:45:41.128Z,79.07
2017-12-04T01:46:50.565Z,79.36
2017-12-04T01:48:00.252Z,78.88
2017-12-04T01:49:09.944Z,78.88
2017-12-04T01:50:19.886Z,79.26
2017-12-04T01:51:29.315Z,79.17
2017-12-04T01:52:38.997Z,79.17
2017-12-04T01:53:48.424Z,79.55
2017-12-04T01:54:58.113Z,79.45
2017-12-04T01:56:07.795Z,79.45
2017-12-04T01:57:17.737Z,79.93
2017-12-04T01:58:27.415Z,79.64
2017-12-04T01:59:37.358Z,79.93
2017-12-04T02:00:47.059Z,79.87
2017-12-04T02:01:56.744Z,80.3
2017-12-04T02:03:06.442Z,80.06
2017-12-04T02:04:16.382Z,79.93
2017-12-04T02:05:25.823Z,80.82
2017-12-04T02:06:35.768Z,81.1
2017-12-04T02:07:45.448Z,80.91
2017-12-04T02:08:55.384Z,81.38
2017-12-04T02:10:05.333Z,82.81
2017-12-04T02:11:15.020Z,83.09
2017-12-04T02:12:24.970Z,83.09
2017-12-04T02:13:34.925Z,84.13
2017-12-04T02:14:44.615Z,84.89
2017-12-04T02:15:54.066Z,85.36
2017-12-04T02:17:03.747Z,85.65
2017-12-04T02:18:13.426Z,86.22
2017-12-04T02:19:22.868Z,86.12
2017-12-04T02:20:32.810Z,86.41
2017-12-04T02:21:42.768Z,87.73
2017-12-04T02:22:52.459Z,87.83
2017-12-04T02:24:02.684Z,88.3
2017-12-04T02:25:12.684Z,88.21
2017-12-04T02:26:22.116Z,88.78
2017-12-04T02:27:32.064Z,88.21
2017-12-04T02:28:41.487Z,89.25
2017-12-04T02:29:51.167Z,89.44
2017-12-04T02:31:00.911Z,89.34
2017-12-04T02:32:10.602Z,89.34
2017-12-04T02:33:20.292Z,90.67
2017-12-04T02:34:30.013Z,90.67
2017-12-04T02:35:39.966Z,90.77
2017-12-04T02:36:49.670Z,90.58
2017-12-04T02:37:59.346Z,90.77
2017-12-04T02:39:09.022Z,90.58
2017-12-04T02:40:18.965Z,90.77
2017-12-04T02:41:28.658Z,90.86
2017-12-04T02:42:38.342Z,91.33
2017-12-04T02:43:48.028Z,91.24
2017-12-04T02:44:57.970Z,91.43
2017-12-04T02:46:07.399Z,91.05
2017-12-04T02:47:17.346Z,91.05
2017-12-04T02:48:27.293Z,91.24
2017-12-04T02:49:36.730Z,91.05
2017-12-04T02:50:46.424Z,91.24
2017-12-04T02:51:56.369Z,91.24
2017-12-04T02:53:06.334Z,91.14
2017-12-04T02:54:15.249Z,91.33
2017-12-04T02:55:25.209Z,91.14
2017-12-04T02:56:35.152Z,91.33
2017-12-04T02:57:45.078Z,90.95
2017-12-04T02:58:55.005Z,91.05
2017-12-04T03:00:04.690Z,91.05
2017-12-04T03:01:14.384Z,90.77
2017-12-04T03:02:24.070Z,90.39
2017-12-04T03:03:33.759Z,90.48
2017-12-04T03:04:43.191Z,90.86
2017-12-04T03:05:52.869Z,90.77
2017-12-04T03:07:02.574Z,90.29
2017-12-04T03:08:12.568Z,90.2
2017-12-04T03:09:22.265Z,89.91
2017-12-04T03:10:31.948Z,89.53
2017-12-04T03:11:41.888Z,89.34
2017-12-04T03:12:51.646Z,89.34
2017-12-04T03:14:01.075Z,89.44
2017-12-04T03:15:11.029Z,89.25
2017-12-04T03:16:20.198Z,88.68
2017-12-04T03:17:30.151Z,88.59
2017-12-04T03:18:39.836Z,88.3
2017-12-04T03:19:49.259Z,88.4
2017-12-04T03:20:58.942Z,88.59
2017-12-04T03:22:08.898Z,88.49
2017-12-04T03:23:18.333Z,88.87
2017-12-04T03:24:27.774Z,89.44
2017-12-04T03:25:37.204Z,89.06
2017-12-04T03:26:47.150Z,89.34
2017-12-04T03:27:56.843Z,89.15
2017-12-04T03:29:06.271Z,88.96
2017-12-04T03:30:15.443Z,89.44
2017-12-04T03:31:24.899Z,89.25
2017-12-04T03:32:34.328Z,89.34
2017-12-04T03:33:44.268Z,89.15
2017-12-04T03:34:54.220Z,89.44
2017-12-04T03:36:03.910Z,89.44
2017-12-04T03:37:13.348Z,89.82
2017-12-04T03:38:23.063Z,89.72
2017-12-04T03:39:32.814Z,89.53
2017-12-04T03:40:42.811Z,89.82
2017-12-04T03:41:52.752Z,89.91
2017-12-04T03:43:02.441Z,89.91
2017-12-04T03:44:12.123Z,89.91
2017-12-04T03:45:21.550Z,90.1
2017-12-04T03:46:31.494Z,90.29
2017-12-04T03:47:41.178Z,90.29
2017-12-04T03:48:51.122Z,90.67
2017-12-04T03:50:00.803Z,90.67
2017-12-04T03:51:10.236Z,90.77
2017-12-04T03:52:20.199Z,91.05
2017-12-04T03:53:30.137Z,91.62
2017-12-04T03:54:39.825Z,91.62
2017-12-04T03:55:49.762Z,91.62
2017-12-04T03:56:59.697Z,91.9
2017-12-04T03:58:09.693Z,91.43
2017-12-04T03:59:19.637Z,91.24
2017-12-04T04:00:29.317Z,91.9
2017-12-04T04:01:38.997Z,91.71
2017-12-04T04:02:48.687Z,91.9
2017-12-04T04:03:58.626Z,92.09
2017-12-04T04:05:08.573Z,92.94
2017-12-04T04:06:18.366Z,94.08
2017-12-04T04:07:28.313Z,93.99
2017-12-04T04:08:37.746Z,94.37
2017-12-04T04:09:47.429Z,94.65
2017-12-04T04:10:57.372Z,94.93
2017-12-04T04:12:07.056Z,95.22
2017-12-04T04:13:16.997Z,96.17
2017-12-04T04:14:26.430Z,96.55
2017-12-04T04:15:36.372Z,96.55
2017-12-04T04:16:45.543Z,96.92
2017-12-04T04:17:55.488Z,97.4
2017-12-04T04:19:05.169Z,97.59
2017-12-04T04:20:14.350Z,97.78
2017-12-04T04:21:24.299Z,97.59
2017-12-04T04:22:34.455Z,98.44
2017-12-04T04:23:44.404Z,98.54
2017-12-04T04:24:54.086Z,98.35
2017-12-04T04:26:03.507Z,98.35
2017-12-04T04:27:13.460Z,99.2
2017-12-04T04:28:23.403Z,99.77
2017-12-04T04:29:33.355Z,99.99
2017-12-04T04:30:43.041Z,99.99
2017-12-04T04:31:52.980Z,99.99
2017-12-04T04:33:02.661Z,99.99
2017-12-04T04:34:12.608Z,99.99
2017-12-04T04:35:22.290Z,99.99
2017-12-04T04:36:31.717Z,99.99
2017-12-04T04:37:41.407Z,99.99
2017-12-04T04:38:51.095Z,99.99
2017-12-04T04:40:01.097Z,99.99
2017-12-04T04:41:10.582Z,99.99
2017-12-04T04:42:20.272Z,99.99
2017-12-04T04:43:29.960Z,99.99
2017-12-04T04:44:39.650Z,99.99
2017-12-04T04:45:49.599Z,99.99
2017-12-04T04:46:58.779Z,99.99
2017-12-04T04:48:08.738Z,99.99
2017-12-04T04:49:18.428Z,99.99
2017-12-04T04:50:28.378Z,99.99
2017-12-04T04:51:38.320Z,99.99
2017-12-04T04:52:48.010Z,99.99
2017-12-04T04:53:57.755Z,99.99
2017-12-04T04:55:07.446Z,99.99
2017-12-04T04:56:17.407Z,99.99
2017-12-04T04:57:27.353Z,99.99
2017-12-04T04:58:37.040Z,99.99
2017-12-04T04:59:46.732Z,99.99
2017-12-04T05:00:56.688Z,99.99
2017-12-04T05:02:06.389Z,99.99
2017-12-04T05:03:16.091Z,99.99
2017-12-04T05:04:25.777Z,99.99
2017-12-04T05:05:35.708Z,99.99
2017-12-04T05:06:45.665Z,99.99
2017-12-04T05:07:55.338Z,99.99
2017-12-04T05:09:05.022Z,99.99
2017-12-04T05:10:15.035Z,99.99
2017-12-04T05:11:24.982Z,99.99
2017-12-04T05:12:34.668Z,99.99
2017-12-04T05:13:44.362Z,99.99
2017-12-04T05:14:54.304Z,99.99
2017-12-04T05:16:04.238Z,99.99
2017-12-04T05:17:13.918Z,99.99
2017-12-04T05:18:23.358Z,99.99
2017-12-04T05:19:33.050Z,99.99
2017-12-04T05:20:42.734Z,99.99
2017-12-04T05:21:52.667Z,99.99
2017-12-04T05:23:02.358Z,99.99
2017-12-04T05:24:12.309Z,99.99
2017-12-04T05:25:21.994Z,99.99
2017-12-04T05:26:31.681Z,99.99
2017-12-04T05:27:41.619Z,99.99
2017-12-04T05:28:51.303Z,99.99
2017-12-04T05:30:00.995Z,99.99
2017-12-04T05:31:10.681Z,99.99
2017-12-04T05:32:20.367Z,99.99
2017-12-04T05:33:30.048Z,99.99
2017-12-04T05:34:39.475Z,99.99
2017-12-04T05:35:49.435Z,99.99
2017-12-04T05:36:58.612Z,99.99
2017-12-04T05:38:08.557Z,99.99
2017-12-04T05:39:18.263Z,99.99
2017-12-04T05:40:27.681Z,99.99
2017-12-04T05:41:37.119Z,99.99
2017-12-04T05:42:47.068Z,99.99
2017-12-04T05:43:57.023Z,99.99
2017-12-04T05:45:06.455Z,99.99
2017-12-04T05:46:16.395Z,99.99
2017-12-04T05:47:25.821Z,99.99
2017-12-04T05:48:34.737Z,99.99
2017-12-04T05:49:44.682Z,99.99
2017-12-04T05:50:54.127Z,99.99
2017-12-04T05:52:03.813Z,99.99
2017-12-04T05:53:13.502Z,99.99
2017-12-04T05:54:23.189Z,99.99
2017-12-04T05:55:33.186Z,99.99
2017-12-04T05:56:43.139Z,99.99
2017-12-04T05:57:53.100Z,99.99
2017-12-04T05:59:02.521Z,99.99
2017-12-04T06:00:12.474Z,99.99
2017-12-04T06:01:22.430Z,99.99
2017-12-04T06:02:32.398Z,99.99
2017-12-04T06:03:41.833Z,99.99
2017-12-04T06:04:51.802Z,99.99
2017-12-04T06:06:01.564Z,99.99
2017-12-04T06:07:11.014Z,99.99
2017-12-04T06:08:20.959Z,99.99
2017-12-04T06:09:30.905Z,99.99
2017-12-04T06:10:40.613Z,99.99
2017-12-04T06:11:50.567Z,99.99
2017-12-04T06:13:00.255Z,99.99
2017-12-04T06:14:10.218Z,99.99
2017-12-04T06:15:19.909Z,99.99
2017-12-04T06:16:29.851Z,99.99
2017-12-04T06:17:39.795Z,99.99
2017-12-04T06:18:49.503Z,99.99
2017-12-04T06:19:59.672Z,99.99
2017-12-04T06:21:09.608Z,99.99
2017-12-04T06:22:19.045Z,99.99
2017-12-04T06:23:28.975Z,99.99
2017-12-04T06:24:38.918Z,99.99
2017-12-04T06:25:48.863Z,99.99
2017-12-04T06:26:58.306Z,99.99
2017-12-04T06:28:08.263Z,99.99
2017-12-04T06:29:17.939Z,99.99
2017-12-04T06:30:27.635Z,99.99
2017-12-04T06:31:37.325Z,99.99
2017-12-04T06:32:47.027Z,99.99
2017-12-04T06:33:56.706Z,99.99
2017-12-04T06:35:06.393Z,99.99
2017-12-04T06:36:16.328Z,99.99
2017-12-04T06:37:26.277Z,99.99
2017-12-04T06:38:36.220Z,99.99
2017-12-04T06:39:45.924Z,99.99
2017-12-04T06:40:55.617Z,99.99
2017-12-04T06:42:05.037Z,99.99
2017-12-04T06:43:14.979Z,99.99
2017-12-04T06:44:24.410Z,99.99
2017-12-04T06:45:33.845Z,99.99
2017-12-04T06:46:43.787Z,99.99
2017-12-04T06:47:53.470Z,99.99
2017-12-04T06:49:03.414Z,99.99
2017-12-04T06:50:13.107Z,99.99
2017-12-04T06:51:23.045Z,99.99
2017-12-04T06:52:33.009Z,99.99
2017-12-04T06:53:42.705Z,99.99
2017-12-04T06:54:52.666Z,99.99
2017-12-04T06:56:02.607Z,99.99
2017-12-04T06:57:12.283Z,99.99
2017-12-04T06:58:21.962Z,99.99
2017-12-04T06:59:31.650Z,99.99
2017-12-04T07:00:41.340Z,99.99
2017-12-04T07:01:51.029Z,99.99
2017-12-04T07:03:00.704Z,99.99
2017-12-04T07:04:10.388Z,99.99
2017-12-04T07:05:20.067Z,99.99
2017-12-04T07:06:29.573Z,99.99
2017-12-04T07:07:39.344Z,99.99
2017-12-04T07:08:49.310Z,99.99
2017-12-04T07:09:59.020Z,99.99
2017-12-04T07:11:08.726Z,99.99
2017-12-04T07:12:18.429Z,99.99
2017-12-04T07:13:28.116Z,99.99
2017-12-04T07:14:38.071Z,99.99
2017-12-04T07:15:47.251Z,99.99
2017-12-04T07:16:56.929Z,99.99
2017-12-04T07:18:06.620Z,99.99
2017-12-04T07:19:16.327Z,99.99
2017-12-04T07:20:26.033Z,99.99
2017-12-04T07:21:35.736Z,99.99
2017-12-04T07:22:45.176Z,99.99
2017-12-04T07:23:54.856Z,99.99
2017-12-04T07:25:04.804Z,99.99
2017-12-04T07:26:14.756Z,99.99
2017-12-04T07:27:24.702Z,99.99
2017-12-04T07:28:34.400Z,99.99
2017-12-04T07:29:44.102Z,99.99
2017-12-04T07:30:54.039Z,99.99
2017-12-04T07:32:03.465Z,99.99
2017-12-04T07:33:13.184Z,99.99
2017-12-04T07:34:23.136Z,99.99
2017-12-04T07:35:32.868Z,99.99
2017-12-04T07:36:42.820Z,99.99
2017-12-04T07:37:52.516Z,99.99
2017-12-04T07:39:02.210Z,99.99
2017-12-04T07:40:12.165Z,99.99
2017-12-04T07:41:21.849Z,99.99
2017-12-04T07:42:31.557Z,99.99
2017-12-04T07:43:41.239Z,99.99
2017-12-04T07:44:50.669Z,99.99
2017-12-04T07:45:59.868Z,99.99
2017-12-04T07:47:09.577Z,99.99
2017-12-04T07:48:18.996Z,99.99
2017-12-04T07:49:29.016Z,99.99
2017-12-04T07:50:38.259Z,99.99
2017-12-04T07:51:48.258Z,99.99
2017-12-04T07:52:57.951Z,99.99
2017-12-04T07:54:07.910Z,99.99
2017-12-04T07:55:17.644Z,99.99
2017-12-04T07:56:27.672Z,99.99
2017-12-04T07:57:37.658Z,99.99
2017-12-04T07:58:47.355Z,99.99
2017-12-04T07:59:57.308Z,99.99
2017-12-04T08:01:07.493Z,99.99
2017-12-04T08:02:17.439Z,99.99
2017-12-04T08:03:27.400Z,99.99
2017-12-04T08:04:37.102Z,99.99
2017-12-04T08:05:47.100Z,99.99
2017-12-04T08:06:56.584Z,99.99
2017-12-04T08:08:06.032Z,99.99
2017-12-04T08:09:15.975Z,99.99
2017-12-04T08:10:25.674Z,99.99
2017-12-04T08:11:35.358Z,99.99
2017-12-04T08:12:44.792Z,99.99
2017-12-04T08:13:54.234Z,99.99
2017-12-04T08:15:03.931Z,99.99
2017-12-04T08:16:13.881Z,99.99
2017-12-04T08:17:23.835Z,99.99
2017-12-04T08:18:33.535Z,99.99
2017-12-04T08:19:43.481Z,99.99
2017-12-04T08:20:53.439Z,99.99
2017-12-04T08:22:02.878Z,99.99
2017-12-04T08:23:12.598Z,99.99
2017-12-04T08:24:22.532Z,99.99
2017-12-04T08:25:32.233Z,99.99
2017-12-04T08:26:42.186Z,99.99
2017-12-04T08:27:51.902Z,99.99
2017-12-04T08:29:01.591Z,99.99
2017-12-04T08:30:11.025Z,99.99
2017-12-04T08:31:20.777Z,99.99
2017-12-04T08:32:30.180Z,99.99
2017-12-04T08:33:39.879Z,99.99
2017-12-04T08:34:49.840Z,99.99
2017-12-04T08:35:59.544Z,99.99
2017-12-04T08:37:09.491Z,99.99
2017-12-04T08:38:19.444Z,99.99
2017-12-04T08:39:29.139Z,99.99
2017-12-04T08:40:38.836Z,99.99
2017-12-04T08:41:48.784Z,99.99
2017-12-04T08:42:58.490Z,99.99
2017-12-04T08:44:08.210Z,99.99
2017-12-04T08:45:17.904Z,99.99
2017-12-04T08:46:27.886Z,99.99
2017-12-04T08:47:37.592Z,99.99
2017-12-04T08:48:47.288Z,99.99
2017-12-04T08:49:56.718Z,99.99
2017-12-04T08:51:06.165Z,99.99
2017-12-04T08:52:15.924Z,99.99
2017-12-04T08:53:25.386Z,99.99
2017-12-04T08:54:35.085Z,99.99
2017-12-04T08:55:44.533Z,99.99
2017-12-04T08:56:54.515Z,99.99
2017-12-04T08:58:03.692Z,99.99
2017-12-04T08:59:13.136Z,99.99
2017-12-04T09:00:22.909Z,99.99
2017-12-04T09:01:32.863Z,99.99
2017-12-04T09:02:42.549Z,99.99
2017-12-04T09:03:52.243Z,99.99
2017-12-04T09:05:01.671Z,99.99
2017-12-04T09:06:11.110Z,99.99
2017-12-04T09:07:20.814Z,99.99
2017-12-04T09:08:30.806Z,99.99
2017-12-04T09:09:40.504Z,99.99
2017-12-04T09:10:50.454Z,99.99
2017-12-04T09:12:00.156Z,99.99
2017-12-04T09:13:09.873Z,99.99
2017-12-04T09:14:19.827Z,99.99
2017-12-04T09:15:29.784Z,99.99
2017-12-04T09:16:39.482Z,99.99
2017-12-04T09:17:49.453Z,99.99
2017-12-04T09:18:59.189Z,99.99
2017-12-04T09:20:09.148Z,99.99
2017-12-04T09:21:19.116Z,99.99
2017-12-04T09:22:28.289Z,99.99
2017-12-04T09:23:37.997Z,99.99
2017-12-04T09:24:47.690Z,99.99
2017-12-04T09:25:57.678Z,99.99
2017-12-04T09:27:07.702Z,99.99
2017-12-04T09:28:17.244Z,99.99
2017-12-04T09:29:26.945Z,99.99
2017-12-04T09:30:36.928Z,99.99
2017-12-04T09:31:46.639Z,99.99
2017-12-04T09:32:56.408Z,99.99
2017-12-04T09:34:06.119Z,99.99
2017-12-04T09:35:15.564Z,99.99
2017-12-04T09:36:25.553Z,99.99
2017-12-04T09:37:35.513Z,99.99
2017-12-04T09:38:45.469Z,99.99
2017-12-04T09:39:54.905Z,99.99
2017-12-04T09:41:04.883Z,99.99
2017-12-04T09:42:14.842Z,99.99
2017-12-04T09:43:24.283Z,99.99
2017-12-04T09:44:34.250Z,99.99
2017-12-04T09:45:43.687Z,99.99
2017-12-04T09:46:53.374Z,99.99
2017-12-04T09:48:02.829Z,99.99
2017-12-04T09:49:12.770Z,99.99
2017-12-04T09:50:22.454Z,99.99
2017-12-04T09:51:31.895Z,99.99
2017-12-04T09:52:41.329Z,99.99
2017-12-04T09:53:51.023Z,99.99
2017-12-04T09:55:00.710Z,99.99
2017-12-04T09:56:10.138Z,99.99
2017-12-04T09:57:19.063Z,99.99
2017-12-04T09:58:28.749Z,99.99
2017-12-04T09:59:38.704Z,99.99
2017-12-04T10:00:48.665Z,99.99
2017-12-04T10:01:58.870Z,99.99
2017-12-04T10:03:08.830Z,99.99
2017-12-04T10:04:18.265Z,99.99
2017-12-04T10:05:27.696Z,99.99
2017-12-04T10:06:37.135Z,99.99
2017-12-04T10:07:46.817Z,99.99
2017-12-04T10:08:56.511Z,99.99
2017-12-04T10:10:06.478Z,99.99
2017-12-04T10:11:16.481Z,99.99
2017-12-04T10:12:26.494Z,99.99
2017-12-04T10:13:36.198Z,99.99
2017-12-04T10:14:46.161Z,99.99
2017-12-04T10:15:56.135Z,99.99
2017-12-04T10:17:05.855Z,99.99
2017-12-04T10:18:15.814Z,99.99
2017-12-04T10:19:25.769Z,99.99
2017-12-04T10:20:35.216Z,99.99
2017-12-04T10:21:45.185Z,99.99
2017-12-04T10:22:54.624Z,99.99
2017-12-04T10:24:04.849Z,99.99
2017-12-04T10:25:14.800Z,99.99
2017-12-04T10:26:23.992Z,99.99
2017-12-04T10:27:33.945Z,99.99
2017-12-04T10:28:43.389Z,99.99
2017-12-04T10:29:53.131Z,99.99
2017-12-04T10:31:03.082Z,99.99
2017-12-04T10:32:12.535Z,99.99
2017-12-04T10:33:21.710Z,99.99
2017-12-04T10:34:31.408Z,99.99
2017-12-04T10:35:41.097Z,99.99
2017-12-04T10:36:50.809Z,99.99
2017-12-04T10:38:15.476Z,99.99
2017-12-04T10:39:25.716Z,99.99
2017-12-04T10:40:36.000Z,99.99
2017-12-04T10:41:45.712Z,99.99
2017-12-04T10:42:55.683Z,99.99
2017-12-04T10:44:05.378Z,99.99
2017-12-04T10:45:15.343Z,99.99
2017-12-04T10:46:25.309Z,99.99
2017-12-04T10:47:34.910Z,99.99
2017-12-04T10:48:44.644Z,99.99
2017-12-04T10:49:54.151Z,99.99
2017-12-04T10:51:03.602Z,99.99
2017-12-04T10:52:13.045Z,99.99
2017-12-04T10:53:22.495Z,99.99
2017-12-04T10:54:32.192Z,99.99
2017-12-04T10:55:41.635Z,99.99
2017-12-04T10:56:51.091Z,99.99
2017-12-04T10:58:00.814Z,99.99
2017-12-04T10:59:10.531Z,99.99
2017-12-04T11:00:20.521Z,99.99
2017-12-04T11:01:30.291Z,99.99
2017-12-04T11:02:40.266Z,99.99
2017-12-04T11:03:50.213Z,99.99
2017-12-04T11:04:59.916Z,99.99
2017-12-04T11:06:09.903Z,99.99
2017-12-04T11:07:19.362Z,99.99
2017-12-04T11:08:29.334Z,99.99
2017-12-04T11:09:39.303Z,99.99
2017-12-04T11:10:49.021Z,99.99
2017-12-04T11:11:58.784Z,99.99
2017-12-04T11:13:08.598Z,99.99
2017-12-04T11:14:18.583Z,99.99
2017-12-04T11:15:28.040Z,99.99
2017-12-04T11:16:38.016Z,99.99
2017-12-04T11:17:47.213Z,99.99
2017-12-04T11:18:56.689Z,99.99
2017-12-04T11:20:06.678Z,99.99
2017-12-04T11:21:15.869Z,99.99
2017-12-04T11:22:25.574Z,99.99
2017-12-04T11:23:35.279Z,99.99
2017-12-04T11:24:45.229Z,99.99
2017-12-04T11:25:54.953Z,99.99
2017-12-04T11:27:04.408Z,99.99
2017-12-04T11:28:14.150Z,99.99
2017-12-04T11:29:24.128Z,99.99
2017-12-04T11:30:34.084Z,99.99
2017-12-04T11:31:43.819Z,99.99
2017-12-04T11:32:53.810Z,99.99
2017-12-04T11:34:03.778Z,99.99
2017-12-04T11:35:13.501Z,99.99
2017-12-04T11:36:23.231Z,99.99
2017-12-04T11:37:32.429Z,99.99
2017-12-04T11:38:42.405Z,99.99
2017-12-04T11:39:52.102Z,99.99
2017-12-04T11:41:02.056Z,99.99
2017-12-04T11:42:11.770Z,99.99
2017-12-04T11:43:21.493Z,99.99
2017-12-04T11:44:31.544Z,99.99
2017-12-04T11:45:41.268Z,99.99
2017-12-04T11:46:51.227Z,99.99
2017-12-04T11:48:01.210Z,99.99
2017-12-04T11:49:11.180Z,99.99
2017-12-04T11:50:20.890Z,99.99
2017-12-04T11:51:30.862Z,99.99
2017-12-04T11:52:40.577Z,99.99
2017-12-04T11:53:50.288Z,99.99
2017-12-04T11:55:00.268Z,99.99
2017-12-04T11:56:10.040Z,99.99
2017-12-04T11:57:19.996Z,99.99
2017-12-04T11:58:29.952Z,99.99
2017-12-04T11:59:39.691Z,99.99
2017-12-04T12:00:49.413Z,99.99
2017-12-04T12:01:59.392Z,99.99
2017-12-04T12:03:08.826Z,99.99
2017-12-04T12:04:18.535Z,99.99
2017-12-04T12:05:28.246Z,99.99
2017-12-04T12:06:37.669Z,99.99
2017-12-04T12:07:47.372Z,99.99
2017-12-04T12:08:57.071Z,99.99
2017-12-04T12:10:07.264Z,99.99
2017-12-04T12:11:16.726Z,99.99
2017-12-04T12:12:26.634Z,99.99
2017-12-04T12:13:36.769Z,99.99
2017-12-04T12:14:46.903Z,99.99
2017-12-04T12:15:56.882Z,99.99
2017-12-04T12:17:06.583Z,99.99
2017-12-04T12:18:15.783Z,99.99
2017-12-04T12:19:25.501Z,99.99
2017-12-04T12:20:35.462Z,99.99
2017-12-04T12:21:45.513Z,99.99
2017-12-04T12:22:55.459Z,99.99
2017-12-04T12:24:04.899Z,99.99
2017-12-04T12:25:14.910Z,99.99
2017-12-04T12:26:24.358Z,99.99
2017-12-04T12:27:34.058Z,99.99
2017-12-04T12:28:44.010Z,99.99
2017-12-04T12:29:53.189Z,99.99
2017-12-04T12:31:02.915Z,99.99
2017-12-04T12:32:12.374Z,99.99
2017-12-04T12:33:22.331Z,99.99
2017-12-04T12:34:32.332Z,99.99
2017-12-04T12:35:42.332Z,99.99
2017-12-04T12:36:52.329Z,99.99
2017-12-04T12:38:02.029Z,99.99
2017-12-04T12:39:11.972Z,99.99
2017-12-04T12:40:21.692Z,99.99
2017-12-04T12:41:31.386Z,99.99
2017-12-04T12:42:40.863Z,99.99
2017-12-04T12:43:50.838Z,99.99
2017-12-04T12:45:00.813Z,99.99
2017-12-04T12:46:10.769Z,99.99
2017-12-04T12:47:20.481Z,99.99
2017-12-04T12:48:30.189Z,99.99
2017-12-04T12:49:40.196Z,99.99
2017-12-04T12:50:50.146Z,99.99
2017-12-04T12:51:59.841Z,99.99
2017-12-04T12:53:09.277Z,99.99
2017-12-04T12:54:19.243Z,99.99
2017-12-04T12:55:29.214Z,99.99
2017-12-04T12:56:38.658Z,99.99
2017-12-04T12:57:48.606Z,99.99
2017-12-04T12:58:58.339Z,99.99
2017-12-04T13:00:08.050Z,99.99
2017-12-04T13:01:17.778Z,99.99
2017-12-04T13:02:27.218Z,99.99
2017-12-04T13:03:37.166Z,99.99
2017-12-04T13:04:46.865Z,99.99
2017-12-04T13:05:56.574Z,99.99
2017-12-04T13:07:06.280Z,99.99
2017-12-04T13:08:15.716Z,99.99
2017-12-04T13:09:25.692Z,99.99
2017-12-04T13:10:35.392Z,99.99
2017-12-04T13:11:45.346Z,99.99
2017-12-04T13:12:55.303Z,99.99
2017-12-04T13:14:05.259Z,99.99
2017-12-04T13:15:15.245Z,99.99
2017-12-04T13:16:24.424Z,99.99
2017-12-04T13:17:34.398Z,99.99
2017-12-04T13:18:43.823Z,99.99
2017-12-04T13:19:53.524Z,99.99
2017-12-04T13:21:02.707Z,99.99
2017-12-04T13:22:12.140Z,99.99
2017-12-04T13:23:21.851Z,99.99
2017-12-04T13:24:31.277Z,99.99
2017-12-04T13:25:40.969Z,99.99
2017-12-04T13:26:50.929Z,99.99
2017-12-04T13:28:00.611Z,99.99
2017-12-04T13:29:10.328Z,99.99
2017-12-04T13:30:20.276Z,99.99
2017-12-04T13:31:30.271Z,99.99
2017-12-04T13:32:40.294Z,99.99
2017-12-04T13:33:49.727Z,99.99
2017-12-04T13:34:59.168Z,99.99
2017-12-04T13:36:08.629Z,99.99
2017-12-04T13:37:18.353Z,99.99
2017-12-04T13:38:28.299Z,99.99
2017-12-04T13:39:38.249Z,99.99
2017-12-04T13:40:47.686Z,99.99
2017-12-04T13:41:57.376Z,99.99
2017-12-04T13:43:07.339Z,99.99
2017-12-04T13:44:17.045Z,99.99
2017-12-04T13:45:26.739Z,99.99
2017-12-04T13:46:36.440Z,99.99
2017-12-04T13:47:45.872Z,99.99
2017-12-04T13:48:55.818Z,99.99
2017-12-04T13:50:05.509Z,99.99
2017-12-04T13:51:14.959Z,99.99
2017-12-04T13:52:24.677Z,99.99
2017-12-04T13:53:34.394Z,99.99
2017-12-04T13:54:43.835Z,99.99
2017-12-04T13:55:53.536Z,99.99
2017-12-04T13:57:02.979Z,99.99
2017-12-04T13:58:12.716Z,99.99
2017-12-04T13:59:22.452Z,99.99
2017-12-04T14:00:32.448Z,99.99
2017-12-04T14:01:42.419Z,99.99
2017-12-04T14:02:52.174Z,99.99
2017-12-04T14:04:01.621Z,99.99
2017-12-04T14:05:11.646Z,99.99
2017-12-04T14:06:21.837Z,99.99
2017-12-04T14:07:31.797Z,99.99
2017-12-04T14:08:41.500Z,99.99
2017-12-04T14:09:51.469Z,99.99
2017-12-04T14:11:01.445Z,99.99
2017-12-04T14:12:11.160Z,99.99
2017-12-04T14:13:20.609Z,99.99
2017-12-04T14:14:30.360Z,99.99
2017-12-04T14:15:40.070Z,99.99
2017-12-04T14:16:50.053Z,99.99
2017-12-04T14:17:59.758Z,99.99
2017-12-04T14:19:09.727Z,99.99
2017-12-04T14:20:19.641Z,99.99
2017-12-04T14:21:29.075Z,99.99
2017-12-04T14:22:38.784Z,99.99
2017-12-04T14:23:48.529Z,99.99
2017-12-04T14:24:58.268Z,99.99
2017-12-04T14:26:08.215Z,99.99
2017-12-04T14:27:17.911Z,99.99
2017-12-04T14:28:27.695Z,99.99
2017-12-04T14:29:37.129Z,99.99
2017-12-04T14:30:46.821Z,99.99
2017-12-04T14:31:56.520Z,99.99
2017-12-04T14:33:06.229Z,99.99
2017-12-04T14:34:15.930Z,99.99
2017-12-04T14:35:25.628Z,99.99
2017-12-04T14:36:35.337Z,99.99
2017-12-04T14:37:45.287Z,99.99
2017-12-04T14:38:55.001Z,99.99
2017-12-04T14:40:04.974Z,99.99
2017-12-04T14:41:14.917Z,99.99
2017-12-04T14:42:24.606Z,99.99
2017-12-04T14:43:34.312Z,99.99
2017-12-04T14:44:44.271Z,99.99
2017-12-04T14:45:54.213Z,99.99
2017-12-04T14:47:04.211Z,99.99
2017-12-04T14:48:13.651Z,99.99
2017-12-04T14:49:23.618Z,99.99
2017-12-04T14:50:33.455Z,99.99
2017-12-04T14:51:43.156Z,99.99
2017-12-04T14:52:53.104Z,99.99
2017-12-04T14:54:02.544Z,99.99
2017-12-04T14:55:12.503Z,99.99
2017-12-04T14:56:22.446Z,99.99
2017-12-04T14:57:31.880Z,99.99
2017-12-04T14:58:41.825Z,99.99
2017-12-04T14:59:51.530Z,99.99